createdAt,value
2018-12-11T00:00:25.087Z,2.90
2018-12-11T00:03:49.806Z,2.90
2018-12-11T00:07:14.570Z,2.90
2018-12-11T00:10:39.282Z,2.90
2018-12-11T00:14:04.022Z,3.00
2018-12-11T00:17:28.703Z,3.00
2018-12-11T00:20:53.395Z,3.00
2018-12-11T00:24:18.321Z,3.00
2018-12-11T00:27:43.010Z,3.00
2018-12-11T00:31:07.796Z,3.10
2018-12-11T00:34:32.508Z,3.20
2018-12-11T00:37:57.202Z,3.20
2018-12-11T00:41:21.911Z,3.20
2018-12-11T00:44:46.649Z,3.10
2018-12-11T00:48:11.341Z,3.20
2018-12-11T00:51:36.043Z,3.10
2018-12-11T00:55:00.787Z,3.00
2018-12-11T00:58:25.564Z,3.00
2018-12-11T01:01:50.310Z,3.10
2018-12-11T01:05:15.064Z,3.00
2018-12-11T01:08:39.788Z,3.00
2018-12-11T01:12:04.667Z,3.10
2018-12-11T01:15:29.433Z,3.10
2018-12-11T01:18:54.352Z,3.10
2018-12-11T01:22:19.060Z,3.10
2018-12-11T01:25:43.764Z,3.10
2018-12-11T01:29:08.545Z,3.20
2018-12-11T01:32:38.447Z,3.30
2018-12-11T01:36:04.013Z,3.20
2018-12-11T01:39:28.724Z,3.30
2018-12-11T01:42:53.476Z,3.30
2018-12-11T01:46:18.219Z,3.30
2018-12-11T01:49:42.894Z,3.30
2018-12-11T01:53:08.056Z,3.30
2018-12-11T01:56:32.769Z,3.20
2018-12-11T01:59:57.532Z,3.20
2018-12-11T02:03:22.247Z,3.20
2018-12-11T02:06:48.153Z,3.40
2018-12-11T02:10:12.936Z,3.50
2018-12-11T02:13:37.650Z,3.40
2018-12-11T02:17:02.480Z,3.50
2018-12-11T02:20:27.200Z,3.40
2018-12-11T02:23:51.953Z,3.50
2018-12-11T02:27:16.912Z,3.40
2018-12-11T02:30:45.206Z,3.40
2018-12-11T02:34:10.212Z,3.40
2018-12-11T02:37:34.998Z,3.40
2018-12-11T02:40:59.764Z,3.40
2018-12-11T02:44:31.360Z,3.40
2018-12-11T02:47:56.061Z,3.50
2018-12-11T02:51:20.836Z,3.50
2018-12-11T02:54:45.554Z,3.40
2018-12-11T02:58:10.264Z,3.30
2018-12-11T03:01:34.965Z,3.30
2018-12-11T03:04:59.726Z,3.20
2018-12-11T03:08:24.455Z,3.20
2018-12-11T03:11:49.255Z,3.20
2018-12-11T03:15:14.182Z,3.20
2018-12-11T03:18:39.140Z,3.20
2018-12-11T03:22:03.863Z,3.10
2018-12-11T03:25:28.578Z,3.10
2018-12-11T03:28:53.266Z,3.00
2018-12-11T03:32:17.999Z,3.10
2018-12-11T03:35:42.700Z,3.20
2018-12-11T03:39:08.073Z,3.10
2018-12-11T03:42:32.855Z,3.10
2018-12-11T03:45:57.687Z,3.00
2018-12-11T03:49:22.439Z,3.10
2018-12-11T03:52:47.158Z,3.10
2018-12-11T03:56:11.828Z,3.20
2018-12-11T03:59:37.171Z,3.30
2018-12-11T04:03:01.943Z,3.40
2018-12-11T04:06:26.652Z,3.50
2018-12-11T04:09:51.354Z,3.50
2018-12-11T04:13:16.104Z,3.50
2018-12-11T04:16:40.892Z,3.50
2018-12-11T04:20:06.907Z,3.50
2018-12-11T04:23:31.572Z,3.30
2018-12-11T04:26:56.346Z,3.20
2018-12-11T04:30:21.097Z,3.10
2018-12-11T04:33:45.858Z,3.10
2018-12-11T04:37:10.562Z,3.10
2018-12-11T04:40:35.270Z,3.00
2018-12-11T04:43:59.988Z,3.00
2018-12-11T04:47:24.652Z,3.10
2018-12-11T04:50:49.412Z,3.20
2018-12-11T04:54:14.107Z,3.30
2018-12-11T04:57:38.899Z,3.40
2018-12-11T05:01:03.627Z,3.40
2018-12-11T05:04:28.419Z,3.40
2018-12-11T05:07:53.127Z,3.40
2018-12-11T05:11:31.593Z,3.30
2018-12-11T05:15:02.943Z,3.30
2018-12-11T05:18:27.700Z,3.30
2018-12-11T05:21:52.463Z,3.30
2018-12-11T05:25:17.187Z,3.30
2018-12-11T05:28:52.962Z,3.40
2018-12-11T05:32:17.716Z,3.50
2018-12-11T05:35:42.529Z,3.60
2018-12-11T05:39:13.860Z,3.70
2018-12-11T05:42:42.348Z,3.70
2018-12-11T05:46:07.483Z,3.60
2018-12-11T05:49:32.188Z,3.50
2018-12-11T05:52:56.859Z,3.40
2018-12-11T05:56:21.556Z,3.30
2018-12-11T05:59:46.375Z,3.40
2018-12-11T06:03:10.995Z,3.50
2018-12-11T06:06:35.712Z,3.50
2018-12-11T06:10:00.437Z,3.60
2018-12-11T06:13:25.182Z,3.60
2018-12-11T06:16:49.916Z,3.70
2018-12-11T06:20:14.585Z,3.70
2018-12-11T06:23:39.295Z,3.70
2018-12-11T06:27:04.010Z,3.70
2018-12-11T06:30:28.686Z,3.80
2018-12-11T06:33:53.903Z,3.80
2018-12-11T06:37:18.681Z,3.80
2018-12-11T06:40:43.379Z,3.80
2018-12-11T06:44:08.064Z,3.80
2018-12-11T06:47:32.745Z,3.90
2018-12-11T06:50:57.438Z,3.80
2018-12-11T06:54:22.087Z,3.80
2018-12-11T06:57:46.815Z,3.80
2018-12-11T07:01:11.453Z,3.70
2018-12-11T07:04:36.206Z,3.50
2018-12-11T07:08:00.839Z,3.40
2018-12-11T07:11:25.594Z,3.30
2018-12-11T07:14:50.362Z,3.20
2018-12-11T07:18:15.057Z,3.20
2018-12-11T07:21:39.801Z,3.20
2018-12-11T07:25:13.573Z,3.20
2018-12-11T07:28:38.583Z,3.20
2018-12-11T07:32:05.589Z,3.10
2018-12-11T07:35:30.797Z,3.10
2018-12-11T07:38:55.942Z,3.20
2018-12-11T07:42:22.091Z,3.20
2018-12-11T07:45:46.991Z,3.20
2018-12-11T07:49:11.832Z,3.20
2018-12-11T07:52:36.779Z,3.30
2018-12-11T07:56:01.524Z,3.30
2018-12-11T07:59:26.495Z,3.20
2018-12-11T08:02:51.336Z,3.20
2018-12-11T08:06:16.276Z,3.20
2018-12-11T08:09:41.173Z,3.30
2018-12-11T08:13:06.052Z,3.50
2018-12-11T08:16:31.279Z,3.50
2018-12-11T08:19:56.299Z,3.60
2018-12-11T08:23:21.204Z,3.70
2018-12-11T08:26:46.053Z,3.80
2018-12-11T08:30:11.191Z,3.90
2018-12-11T08:33:36.741Z,4.00
2018-12-11T08:37:01.665Z,3.90
2018-12-11T08:40:30.379Z,3.90
2018-12-11T08:43:55.619Z,3.90
2018-12-11T08:47:20.344Z,4.00
2018-12-11T08:50:45.317Z,4.10
2018-12-11T08:54:13.331Z,4.10
2018-12-11T08:57:38.632Z,4.10
2018-12-11T09:01:03.733Z,4.00
2018-12-11T09:04:28.738Z,4.00
2018-12-11T09:07:54.582Z,3.90
2018-12-11T09:11:19.637Z,3.80
2018-12-11T09:14:48.508Z,3.80
2018-12-11T09:18:13.767Z,3.80
2018-12-11T09:21:42.992Z,4.00
2018-12-11T09:25:08.786Z,4.30
2018-12-11T09:28:39.103Z,4.50
2018-12-11T09:32:09.712Z,4.90
2018-12-11T09:35:41.629Z,5.40
2018-12-11T09:39:10.486Z,6.00
2018-12-11T09:42:36.976Z,6.80
2018-12-11T09:46:03.976Z,7.20
2018-12-11T09:49:30.008Z,7.90
2018-12-11T09:52:57.418Z,8.30
2018-12-11T09:56:25.320Z,8.00
2018-12-11T09:59:50.256Z,7.50
2018-12-11T10:03:16.425Z,7.60
2018-12-11T10:06:43.089Z,8.20
2018-12-11T10:10:10.533Z,9.10
2018-12-11T10:13:36.350Z,10.00
2018-12-11T10:17:01.788Z,10.80
2018-12-11T10:20:27.149Z,11.00
2018-12-11T10:23:53.077Z,11.20
2018-12-11T10:27:22.034Z,11.40
2018-12-11T10:30:48.863Z,11.80
2018-12-11T10:34:16.862Z,11.80
2018-12-11T10:37:42.348Z,11.90
2018-12-11T10:41:07.635Z,11.20
2018-12-11T10:44:32.543Z,10.20
2018-12-11T10:47:58.694Z,9.20
2018-12-11T10:51:23.758Z,8.70
2018-12-11T10:54:48.638Z,9.10
2018-12-11T10:58:13.531Z,10.50
2018-12-11T11:01:44.607Z,11.20
2018-12-11T11:05:10.176Z,10.80
2018-12-11T11:08:35.376Z,10.30
2018-12-11T11:12:00.963Z,10.60
2018-12-11T11:15:26.729Z,11.80
2018-12-11T11:18:52.203Z,12.70
2018-12-11T11:22:17.459Z,13.60
2018-12-11T11:25:42.271Z,14.20
2018-12-11T11:29:08.385Z,13.00
2018-12-11T11:32:34.532Z,11.70
2018-12-11T11:36:03.825Z,11.20
2018-12-11T11:39:30.086Z,11.00
2018-12-11T11:42:55.214Z,10.40
2018-12-11T11:46:20.423Z,9.50
2018-12-11T11:49:46.911Z,9.10
2018-12-11T11:53:11.925Z,8.70
2018-12-11T11:56:36.922Z,8.50
2018-12-11T12:00:02.106Z,8.20
2018-12-11T12:03:27.077Z,8.10
2018-12-11T12:06:56.498Z,8.00
2018-12-11T12:10:21.581Z,7.70
2018-12-11T12:13:46.621Z,7.60
2018-12-11T12:17:11.510Z,7.80
2018-12-11T12:20:36.817Z,8.20
2018-12-11T12:24:02.338Z,8.30
2018-12-11T12:27:27.354Z,8.10
2018-12-11T12:30:53.268Z,8.00
2018-12-11T12:34:46.313Z,8.10
2018-12-11T12:38:27.879Z,8.30
2018-12-11T12:41:53.131Z,8.30
2018-12-11T12:45:18.454Z,8.40
2018-12-11T12:48:45.013Z,8.30
2018-12-11T12:52:15.839Z,8.20
2018-12-11T12:55:40.900Z,8.20
2018-12-11T12:59:06.353Z,8.10
2018-12-11T13:02:31.635Z,7.90
2018-12-11T13:05:56.852Z,7.90
2018-12-11T13:09:27.103Z,8.20
2018-12-11T13:12:52.066Z,9.10
2018-12-11T13:16:16.854Z,10.20
2018-12-11T13:19:41.547Z,10.70
2018-12-11T13:23:06.220Z,11.00
2018-12-11T13:26:30.896Z,11.50
2018-12-11T13:29:55.542Z,11.50
2018-12-11T13:33:21.943Z,11.10
2018-12-11T13:36:46.647Z,10.70
2018-12-11T13:40:11.369Z,10.10
2018-12-11T13:43:36.100Z,9.60
2018-12-11T13:47:00.983Z,9.10
2018-12-11T13:50:25.761Z,8.70
2018-12-11T13:53:50.497Z,8.40
2018-12-11T13:57:15.401Z,8.30
2018-12-11T14:00:40.060Z,8.10
2018-12-11T14:04:05.219Z,8.00
2018-12-11T14:07:35.575Z,7.90
2018-12-11T14:11:00.934Z,7.90
2018-12-11T14:14:26.860Z,7.80
2018-12-11T14:17:58.693Z,7.80
2018-12-11T14:21:24.215Z,7.80
2018-12-11T14:24:49.462Z,7.80
2018-12-11T14:28:14.254Z,7.70
2018-12-11T14:31:38.996Z,7.70
2018-12-11T14:35:03.893Z,7.60
2018-12-11T14:38:28.713Z,7.50
2018-12-11T14:41:53.787Z,7.30
2018-12-11T14:45:18.582Z,7.30
2018-12-11T14:48:43.700Z,7.30
2018-12-11T14:52:08.741Z,7.30
2018-12-11T14:55:33.449Z,7.30
2018-12-11T14:58:58.143Z,7.10
2018-12-11T15:02:23.002Z,7.00
2018-12-11T15:05:47.825Z,6.80
2018-12-11T15:09:18.034Z,6.70
2018-12-11T15:12:43.461Z,6.50
2018-12-11T15:16:08.884Z,6.20
2018-12-11T15:19:33.550Z,6.00
2018-12-11T15:22:58.270Z,5.70
2018-12-11T15:26:22.920Z,5.60
2018-12-11T15:29:47.598Z,5.50
2018-12-11T15:33:12.288Z,5.50
2018-12-11T15:36:36.954Z,5.50
2018-12-11T15:40:01.627Z,5.60
2018-12-11T15:43:26.730Z,5.70
2018-12-11T15:46:51.600Z,5.80
2018-12-11T15:50:16.280Z,5.80
2018-12-11T15:53:41.021Z,5.80
2018-12-11T16:00:47.824Z,5.80
2018-12-11T16:04:12.551Z,5.80
2018-12-11T16:07:37.987Z,5.90
2018-12-11T16:11:02.681Z,5.90
2018-12-11T16:14:27.378Z,5.90
2018-12-11T16:17:52.081Z,5.90
2018-12-11T16:21:16.785Z,5.90
2018-12-11T16:24:41.453Z,5.90
2018-12-11T16:28:06.207Z,5.90
2018-12-11T16:31:30.902Z,5.90
2018-12-11T16:34:55.838Z,5.80
2018-12-11T16:38:20.596Z,5.80
2018-12-11T16:41:45.342Z,5.70
2018-12-11T16:45:10.179Z,5.60
2018-12-11T16:48:34.970Z,5.60
2018-12-11T16:51:59.662Z,5.60
2018-12-11T16:55:24.358Z,5.50
2018-12-11T16:58:49.270Z,5.50
2018-12-11T17:02:13.998Z,5.40
2018-12-11T17:05:39.345Z,5.40
2018-12-11T17:09:05.263Z,5.40
2018-12-11T17:12:30.460Z,5.30
2018-12-11T17:15:56.919Z,5.30
2018-12-11T17:19:21.750Z,5.20
2018-12-11T17:22:46.464Z,5.20
2018-12-11T17:26:11.154Z,5.10
2018-12-11T17:29:35.864Z,5.10
2018-12-11T17:33:02.915Z,5.10
2018-12-11T17:36:27.947Z,5.10
2018-12-11T17:39:52.830Z,5.10
2018-12-11T17:43:17.990Z,5.10
2018-12-11T17:46:42.762Z,5.10
2018-12-11T17:50:09.204Z,5.10
2018-12-11T17:53:34.422Z,5.00
2018-12-11T17:56:59.379Z,5.00
2018-12-11T18:00:24.209Z,5.00
2018-12-11T18:03:48.892Z,5.00
2018-12-11T18:07:13.599Z,5.00
2018-12-11T18:10:38.325Z,5.00
2018-12-11T18:14:03.119Z,5.00
2018-12-11T18:17:27.899Z,5.00
2018-12-11T18:20:52.559Z,4.90
2018-12-11T18:24:17.238Z,4.90
2018-12-11T18:27:41.902Z,4.90
2018-12-11T18:31:07.532Z,5.00
2018-12-11T18:34:34.222Z,5.00
2018-12-11T18:37:58.930Z,4.90
2018-12-11T18:41:23.605Z,5.00
2018-12-11T18:44:48.332Z,5.00
2018-12-11T18:48:13.088Z,5.00
2018-12-11T18:51:37.931Z,5.00
2018-12-11T18:55:02.614Z,5.00
2018-12-11T18:58:27.297Z,5.10
2018-12-11T19:01:52.030Z,5.00
2018-12-11T19:05:16.967Z,5.00
2018-12-11T19:08:41.712Z,5.10
2018-12-11T19:12:06.466Z,5.10
2018-12-11T19:15:31.220Z,5.10
2018-12-11T19:18:55.953Z,5.10
2018-12-11T19:22:20.712Z,5.10
2018-12-11T19:25:45.915Z,5.00
2018-12-11T19:29:10.702Z,5.00
2018-12-11T19:32:35.837Z,4.90
2018-12-11T19:36:00.515Z,5.00
2018-12-11T19:39:25.565Z,5.10
2018-12-11T19:42:50.599Z,5.10
2018-12-11T19:46:15.979Z,5.10
2018-12-11T19:49:40.709Z,5.20
2018-12-11T19:53:05.687Z,5.20
2018-12-11T19:56:30.359Z,5.20
2018-12-11T19:59:55.789Z,5.20
2018-12-11T20:03:20.539Z,5.10
2018-12-11T20:06:46.275Z,5.40
2018-12-11T20:10:18.483Z,5.30
2018-12-11T20:13:52.193Z,5.10
2018-12-11T20:17:16.927Z,4.90
2018-12-11T20:20:41.723Z,4.60
2018-12-11T20:24:06.570Z,4.40
2018-12-11T20:27:31.242Z,4.20
2018-12-11T20:30:56.270Z,4.00
2018-12-11T20:34:21.026Z,3.90
2018-12-11T20:37:45.826Z,3.80
2018-12-11T20:41:10.953Z,3.70
2018-12-11T20:44:35.946Z,3.60
2018-12-11T20:48:01.333Z,3.60
2018-12-11T20:51:26.225Z,3.50
2018-12-11T20:54:51.091Z,3.50
2018-12-11T20:58:15.911Z,3.40
2018-12-11T21:01:40.578Z,3.40
2018-12-11T21:05:05.856Z,3.30
2018-12-11T21:08:31.521Z,3.20
2018-12-11T21:11:56.676Z,3.10
2018-12-11T21:15:21.353Z,3.10
2018-12-11T21:18:46.540Z,3.00
2018-12-11T21:22:11.243Z,2.90
2018-12-11T21:25:36.586Z,2.70
2018-12-11T21:29:01.300Z,2.70
2018-12-11T21:32:26.452Z,2.60
2018-12-11T21:35:51.224Z,2.60
2018-12-11T21:39:17.054Z,2.50
2018-12-11T21:42:41.761Z,2.50
2018-12-11T21:46:07.078Z,2.40
2018-12-11T21:49:31.752Z,2.40
2018-12-11T21:52:56.801Z,2.40
2018-12-11T21:56:21.595Z,2.30
2018-12-11T21:59:47.191Z,2.20
2018-12-11T22:03:12.208Z,2.20
2018-12-11T22:06:37.070Z,2.20
2018-12-11T22:10:01.749Z,2.20
2018-12-11T22:13:26.737Z,2.10
2018-12-11T22:16:51.514Z,2.00
2018-12-11T22:20:16.354Z,1.90
2018-12-11T22:23:41.338Z,1.90
2018-12-11T22:27:06.143Z,1.80
2018-12-11T22:30:30.911Z,1.80
2018-12-11T22:33:55.660Z,1.80
2018-12-11T22:37:20.967Z,1.70
2018-12-11T22:40:45.707Z,1.80
2018-12-11T22:44:10.418Z,1.70
2018-12-11T22:47:35.154Z,1.70
2018-12-11T22:50:59.970Z,1.70
2018-12-11T22:54:25.034Z,1.70
2018-12-11T22:57:49.846Z,1.60
2018-12-11T23:01:14.559Z,1.60
2018-12-11T23:04:39.305Z,1.50
2018-12-11T23:08:04.007Z,1.50
2018-12-11T23:11:28.827Z,1.50
2018-12-11T23:14:53.592Z,1.40
2018-12-11T23:18:18.355Z,1.40
2018-12-11T23:21:43.167Z,1.30
2018-12-11T23:25:08.207Z,1.30
2018-12-11T23:28:32.913Z,1.30
2018-12-11T23:31:57.689Z,1.30
2018-12-11T23:35:22.787Z,1.30
2018-12-11T23:38:47.514Z,1.30
2018-12-11T23:42:12.289Z,1.30
2018-12-11T23:45:37.033Z,1.30
2018-12-11T23:49:01.820Z,1.30
2018-12-11T23:52:26.622Z,1.30
2018-12-11T23:55:51.362Z,1.30
2018-12-11T23:59:16.021Z,1.30
